createdAt,value
2022-12-28T00:01:37.606Z,97149.03
2022-12-28T00:04:34.605Z,97158.03
2022-12-28T00:07:31.484Z,97154.97
2022-12-28T00:11:08.998Z,97158.59
2022-12-28T00:13:45.530Z,97151.44
2022-12-28T00:16:43.327Z,97155.94
2022-12-28T00:19:40.155Z,97158.41
2022-12-28T00:22:36.987Z,97149.38
2022-12-28T00:25:37.066Z,97150.03
2022-12-28T00:28:34.069Z,97133.13
2022-12-28T00:31:31.045Z,97131.91
2022-12-28T00:34:28.022Z,97133.38
2022-12-28T00:37:24.840Z,97132.94
2022-12-28T00:40:24.098Z,97123.94
2022-12-28T00:43:21.750Z,97112.88
2022-12-28T00:46:18.567Z,97115.09
2022-12-28T00:49:15.388Z,97109.59
2022-12-28T00:52:12.194Z,97109.59
2022-12-28T00:55:09.355Z,97106.00
2022-12-28T00:58:07.257Z,97109.44
2022-12-28T01:01:10.373Z,97108.38
2022-12-28T01:04:07.400Z,97096.84
2022-12-28T01:07:04.215Z,97085.00
2022-12-28T01:10:01.030Z,97079.38
2022-12-28T01:12:57.827Z,97069.09
2022-12-28T01:15:54.640Z,97068.19
2022-12-28T01:18:55.558Z,97065.31
2022-12-28T01:21:52.731Z,97061.88
2022-12-28T01:24:49.568Z,97061.28
2022-12-28T01:27:46.366Z,97046.22
2022-12-28T01:30:43.231Z,97042.47
2022-12-28T01:33:40.672Z,97046.78
2022-12-28T01:36:37.489Z,97033.06
2022-12-28T01:39:34.303Z,97037.25
2022-12-28T01:42:31.121Z,97029.38
2022-12-28T01:45:28.230Z,97028.22
2022-12-28T01:48:25.684Z,97016.81
2022-12-28T01:51:24.790Z,97021.28
2022-12-28T01:54:24.736Z,97022.22
2022-12-28T01:57:27.150Z,97016.81
2022-12-28T02:00:24.535Z,97006.63
2022-12-28T02:03:27.971Z,96983.41
2022-12-28T02:06:24.879Z,96990.03
2022-12-28T02:09:33.430Z,96983.38
2022-12-28T02:12:30.844Z,96981.91
2022-12-28T02:15:28.274Z,96969.28
2022-12-28T02:18:25.901Z,96965.03
2022-12-28T02:22:14.745Z,96952.38
2022-12-28T02:26:06.213Z,96953.44
2022-12-28T02:29:10.095Z,96954.34
2022-12-28T02:32:26.561Z,96941.59
2022-12-28T02:35:54.823Z,96937.22
2022-12-28T02:38:55.857Z,96935.06
2022-12-28T02:41:54.885Z,96928.56
2022-12-28T02:45:10.726Z,96935.69
2022-12-28T02:48:27.225Z,96918.63
2022-12-28T02:51:43.840Z,96898.50
2022-12-28T02:55:53.040Z,96908.50
2022-12-28T02:59:15.476Z,96911.22
2022-12-28T03:02:42.829Z,96902.16
2022-12-28T03:06:19.565Z,96900.00
2022-12-28T03:09:39.279Z,96893.53
2022-12-28T03:12:46.873Z,96907.16
2022-12-28T03:15:44.468Z,96894.44
2022-12-28T03:19:03.027Z,96896.28
2022-12-28T03:22:18.535Z,96886.19
2022-12-28T03:25:43.194Z,96890.19
2022-12-28T03:29:00.633Z,96890.72
2022-12-28T03:31:57.557Z,96892.13
2022-12-28T03:34:54.483Z,96881.78
2022-12-28T03:38:00.159Z,96873.47
2022-12-28T03:41:12.375Z,96865.63
2022-12-28T03:44:27.773Z,96852.91
2022-12-28T03:47:28.944Z,96842.84
2022-12-28T03:50:25.993Z,96846.28
2022-12-28T03:53:45.203Z,96850.03
2022-12-28T03:56:51.645Z,96847.75
2022-12-28T03:59:48.495Z,96832.53
2022-12-28T04:02:45.389Z,96829.72
2022-12-28T04:05:42.257Z,96827.66
2022-12-28T04:08:39.141Z,96829.50
2022-12-28T04:11:36.029Z,96827.47
2022-12-28T04:14:32.870Z,96836.31
2022-12-28T04:17:29.705Z,96826.78
2022-12-28T04:20:26.698Z,96822.31
2022-12-28T04:23:23.568Z,96823.09
2022-12-28T04:26:20.585Z,96818.63
2022-12-28T04:29:17.478Z,96803.47
2022-12-28T04:32:14.351Z,96797.59
2022-12-28T04:35:11.198Z,96802.47
2022-12-28T04:38:09.078Z,96805.41
2022-12-28T04:41:07.734Z,96811.41
2022-12-28T04:44:04.584Z,96798.84
2022-12-28T04:47:01.501Z,96800.53
2022-12-28T04:49:58.412Z,96786.78
2022-12-28T04:52:55.291Z,96792.53
2022-12-28T04:55:52.178Z,96788.94
2022-12-28T04:58:53.288Z,96783.25
2022-12-28T05:01:50.326Z,96781.09
2022-12-28T05:04:47.232Z,96781.25
2022-12-28T05:07:44.170Z,96774.78
2022-12-28T05:10:41.017Z,96786.44
2022-12-28T05:13:37.885Z,96783.25
2022-12-28T05:16:34.928Z,96783.25
2022-12-28T05:19:31.836Z,96772.44
2022-12-28T05:22:28.926Z,96771.75
2022-12-28T05:25:25.784Z,96779.31
2022-12-28T05:28:23.737Z,96763.97
2022-12-28T05:31:22.979Z,96769.03
2022-12-28T05:34:19.852Z,96763.97
2022-12-28T05:37:21.775Z,96758.84
2022-12-28T05:40:19.061Z,96763.75
2022-12-28T05:43:15.987Z,96756.06
2022-12-28T05:46:20.414Z,96756.22
2022-12-28T05:49:17.535Z,96744.72
2022-12-28T05:52:14.351Z,96741.03
2022-12-28T05:55:11.472Z,96744.16
2022-12-28T05:58:09.028Z,96740.22
2022-12-28T06:01:18.046Z,96744.06
2022-12-28T06:04:18.836Z,96746.16
2022-12-28T06:07:15.655Z,96730.81
2022-12-28T06:10:12.488Z,96725.69
2022-12-28T06:13:10.844Z,96719.66
2022-12-28T06:16:22.443Z,96720.72
2022-12-28T06:19:19.280Z,96721.22
2022-12-28T06:22:16.486Z,96716.00
2022-12-28T06:25:13.610Z,96717.22
2022-12-28T06:28:10.468Z,96720.72
2022-12-28T06:31:20.237Z,96724.00
2022-12-28T06:34:17.643Z,96726.72
2022-12-28T06:37:14.511Z,96714.53
2022-12-28T06:40:11.794Z,96707.44
2022-12-28T06:43:08.639Z,96708.66
2022-12-28T06:46:06.376Z,96695.50
2022-12-28T06:49:03.286Z,96681.69
2022-12-28T06:52:00.160Z,96673.28
2022-12-28T06:54:56.992Z,96683.84
2022-12-28T06:57:54.468Z,96678.72
2022-12-28T07:00:52.049Z,96687.13
2022-12-28T07:03:53.426Z,96687.13
2022-12-28T07:06:50.262Z,96685.66
2022-12-28T07:09:47.119Z,96688.53
2022-12-28T07:12:43.929Z,96691.34
2022-12-28T07:15:40.748Z,96690.69
2022-12-28T07:18:38.276Z,96699.25
2022-12-28T07:21:38.499Z,96697.41
2022-12-28T07:24:35.360Z,96685.84
2022-12-28T07:27:32.280Z,96689.50
2022-12-28T07:30:29.232Z,96698.75
2022-12-28T07:33:26.135Z,96696.41
2022-12-28T07:36:24.984Z,96697.03
2022-12-28T07:39:21.814Z,96696.06
2022-12-28T07:42:18.640Z,96694.78
2022-12-28T07:45:15.527Z,96695.81
2022-12-28T07:48:12.801Z,96700.59
2022-12-28T07:51:13.788Z,96697.25
2022-12-28T07:54:11.065Z,96703.25
2022-12-28T07:57:07.927Z,96711.25
2022-12-28T08:00:07.264Z,96699.47
2022-12-28T08:03:04.113Z,96705.03
2022-12-28T08:06:19.823Z,96695.00
2022-12-28T08:09:16.796Z,96690.59
2022-12-28T08:12:13.616Z,96696.94
2022-12-28T08:15:10.757Z,96685.69
2022-12-28T08:18:07.594Z,96702.88
2022-12-28T08:21:12.946Z,96705.50
2022-12-28T08:24:18.738Z,96699.50
2022-12-28T08:27:15.570Z,96697.69
2022-12-28T08:30:13.605Z,96690.28
2022-12-28T08:33:10.403Z,96695.06
2022-12-28T08:36:09.292Z,96681.59
2022-12-28T08:39:06.794Z,96683.19
2022-12-28T08:42:04.428Z,96683.50
2022-12-28T08:45:01.303Z,96674.25
2022-12-28T08:47:58.138Z,96678.50
2022-12-28T08:50:55.734Z,96669.78
2022-12-28T08:53:53.092Z,96666.94
2022-12-28T08:56:50.163Z,96666.75
2022-12-28T08:59:46.996Z,96672.03
2022-12-28T09:02:43.938Z,96668.38
2022-12-28T09:05:40.945Z,96678.69
2022-12-28T09:08:38.164Z,96686.63
2022-12-28T09:11:36.548Z,96673.97
2022-12-28T09:14:33.447Z,96687.47
2022-12-28T09:17:30.728Z,96679.81
2022-12-28T09:20:27.603Z,96682.00
2022-12-28T09:23:24.423Z,96683.94
2022-12-28T09:26:25.495Z,96679.63
2022-12-28T09:29:22.408Z,96684.38
2022-12-28T09:32:19.250Z,96682.81
2022-12-28T09:35:16.148Z,96677.53
2022-12-28T09:38:13.464Z,96683.41
2022-12-28T09:41:32.930Z,96680.03
2022-12-28T09:44:51.873Z,96677.38
2022-12-28T09:47:52.901Z,96663.38
2022-12-28T09:50:50.851Z,96658.72
2022-12-28T09:53:47.757Z,96644.97
2022-12-28T09:56:48.077Z,96645.72
2022-12-28T09:59:48.031Z,96636.44
2022-12-28T10:02:52.145Z,96639.34
2022-12-28T10:05:51.614Z,96635.66
2022-12-28T10:08:52.780Z,96640.41
2022-12-28T10:11:49.682Z,96634.84
2022-12-28T10:14:48.289Z,96642.03
2022-12-28T10:17:45.741Z,96636.50
2022-12-28T10:20:45.916Z,96620.38
2022-12-28T10:24:20.958Z,96627.31
2022-12-28T10:27:07.369Z,96616.44
2022-12-28T10:30:18.088Z,96623.59
2022-12-28T10:33:19.108Z,96620.94
2022-12-28T10:36:16.612Z,96619.91
2022-12-28T10:39:27.438Z,96612.75
2022-12-28T10:42:40.312Z,96614.91
2022-12-28T10:45:42.088Z,96612.00
2022-12-28T10:48:39.853Z,96602.72
2022-12-28T10:51:36.802Z,96600.09
2022-12-28T10:54:36.983Z,96590.50
2022-12-28T10:57:33.883Z,96587.06
2022-12-28T11:00:34.568Z,96591.88
2022-12-28T11:03:36.783Z,96585.78
2022-12-28T11:06:50.155Z,96585.22
2022-12-28T11:09:47.005Z,96579.75
2022-12-28T11:12:45.419Z,96576.03
2022-12-28T11:15:44.156Z,96569.16
2022-12-28T11:18:41.955Z,96562.78
2022-12-28T11:21:41.382Z,96554.09
2022-12-28T11:24:40.450Z,96544.28
2022-12-28T11:27:37.329Z,96550.66
2022-12-28T11:30:34.171Z,96539.25
2022-12-28T11:33:48.700Z,96544.84
2022-12-28T11:36:46.599Z,96541.69
2022-12-28T11:39:52.249Z,96536.16
2022-12-28T11:42:55.644Z,96532.16
2022-12-28T11:45:54.846Z,96516.28
2022-12-28T11:48:54.520Z,96529.56
2022-12-28T11:52:27.573Z,96521.63
2022-12-28T11:55:38.567Z,96518.97
2022-12-28T11:58:40.938Z,96505.22
2022-12-28T12:01:40.947Z,96502.81
2022-12-28T12:04:41.747Z,96507.06
2022-12-28T12:07:46.955Z,96508.94
2022-12-28T12:10:48.290Z,96486.66
2022-12-28T12:13:50.651Z,96474.19
2022-12-28T12:17:02.973Z,96485.88
2022-12-28T12:20:28.266Z,96472.59
2022-12-28T12:23:48.800Z,96477.13
2022-12-28T12:26:58.789Z,96474.22
2022-12-28T12:30:23.586Z,96470.75
2022-12-28T12:33:29.503Z,96472.34
2022-12-28T12:37:21.920Z,96468.66
2022-12-28T12:41:25.114Z,96467.31
2022-12-28T12:44:56.439Z,96456.97
2022-12-28T12:48:27.705Z,96465.22
2022-12-28T12:52:06.299Z,96465.97
2022-12-28T12:55:45.735Z,96459.88
2022-12-28T12:59:31.292Z,96453.78
2022-12-28T13:03:05.801Z,96454.06
2022-12-28T13:06:06.396Z,96439.97
2022-12-28T13:09:07.809Z,96445.31
2022-12-28T13:12:19.713Z,96444.25
2022-12-28T13:15:18.288Z,96442.91
2022-12-28T13:21:50.862Z,96424.59
2022-12-28T13:24:47.686Z,96426.97
2022-12-28T13:27:44.535Z,96424.06
2022-12-28T13:30:41.412Z,96426.16
2022-12-28T13:33:38.723Z,96424.59
2022-12-28T13:36:35.616Z,96418.50
2022-12-28T13:39:39.932Z,96417.94
2022-12-28T13:42:57.391Z,96406.06
2022-12-28T13:46:10.335Z,96400.19
2022-12-28T13:49:07.931Z,96389.56
2022-12-28T13:52:13.496Z,96384.75
2022-12-28T13:55:20.282Z,96376.03
2022-12-28T13:58:23.570Z,96377.38
2022-12-28T14:01:29.279Z,96383.44
2022-12-28T14:04:51.699Z,96375.50
2022-12-28T14:07:44.093Z,96375.19
2022-12-28T14:10:42.087Z,96381.28
2022-12-28T14:13:40.079Z,96371.19
2022-12-28T14:16:39.251Z,96373.00
2022-12-28T14:19:36.840Z,96380.19
2022-12-28T14:22:38.164Z,96367.72
2022-12-28T14:25:42.793Z,96365.34
2022-12-28T14:28:53.355Z,96363.19
2022-12-28T14:31:59.972Z,96358.38
2022-12-28T14:34:59.370Z,96360.72
2022-12-28T14:38:00.112Z,96349.78
2022-12-28T14:40:59.770Z,96363.13
2022-12-28T14:44:02.023Z,96348.00
2022-12-28T14:46:59.500Z,96350.88
2022-12-28T14:50:00.716Z,96358.28
2022-12-28T14:53:19.216Z,96343.41
2022-12-28T14:56:19.369Z,96345.81
2022-12-28T14:59:30.195Z,96338.03
2022-12-28T15:02:33.073Z,96346.81
2022-12-28T15:05:46.698Z,96334.31
2022-12-28T15:08:43.520Z,96334.31
2022-12-28T15:11:40.339Z,96328.38
2022-12-28T15:14:37.345Z,96330.78
2022-12-28T15:17:34.203Z,96325.69
2022-12-28T15:20:31.107Z,96328.94
2022-12-28T15:23:27.914Z,96319.56
2022-12-28T15:26:27.466Z,96324.09
2022-12-28T15:29:39.960Z,96309.22
2022-12-28T15:32:41.200Z,96307.38
2022-12-28T15:35:38.138Z,96308.66
2022-12-28T15:38:35.081Z,96305.72
2022-12-28T15:41:46.546Z,96308.09
2022-12-28T15:44:43.434Z,96304.47
2022-12-28T15:47:40.289Z,96306.50
2022-12-28T15:50:37.108Z,96295.97
2022-12-28T15:53:33.918Z,96296.47
2022-12-28T15:56:34.116Z,96302.53
2022-12-28T15:59:30.936Z,96295.38
2022-12-28T16:02:28.001Z,96300.41
2022-12-28T16:05:25.006Z,96293.63
2022-12-28T16:08:21.829Z,96302.78
2022-12-28T16:11:20.228Z,96311.25
2022-12-28T16:14:17.247Z,96295.59
2022-12-28T16:17:15.126Z,96307.81
2022-12-28T16:20:12.124Z,96301.97
2022-12-28T16:23:08.975Z,96296.75
2022-12-28T16:26:07.405Z,96296.16
2022-12-28T16:29:04.354Z,96295.81
2022-12-28T16:32:01.623Z,96289.41
2022-12-28T16:34:58.542Z,96295.31
2022-12-28T16:37:55.334Z,96288.25
2022-12-28T16:40:52.273Z,96295.66
2022-12-28T16:43:50.033Z,96286.00
2022-12-28T16:46:48.116Z,96290.38
2022-12-28T16:49:44.932Z,96289.47
2022-12-28T16:52:41.789Z,96283.34
2022-12-28T16:55:42.108Z,96282.88
2022-12-28T16:58:38.951Z,96279.38
2022-12-28T17:01:35.848Z,96275.59
2022-12-28T17:04:32.719Z,96274.03
2022-12-28T17:07:29.623Z,96272.09
2022-12-28T17:10:26.648Z,96273.97
2022-12-28T17:13:23.807Z,96263.41
2022-12-28T17:16:20.701Z,96254.63
2022-12-28T17:19:17.560Z,96246.69
2022-12-28T17:22:14.434Z,96254.06
2022-12-28T17:25:11.642Z,96248.16
2022-12-28T17:28:08.628Z,96246.06
2022-12-28T17:31:16.293Z,96246.06
2022-12-28T17:34:15.073Z,96238.41
2022-12-28T17:37:12.003Z,96241.00
2022-12-28T17:40:09.733Z,96235.88
2022-12-28T17:43:06.755Z,96227.16
2022-12-28T17:46:03.912Z,96230.94
2022-12-28T17:49:00.993Z,96221.28
2022-12-28T17:51:57.798Z,96220.97
2022-12-28T17:54:54.609Z,96211.69
2022-12-28T17:57:54.829Z,96207.88
2022-12-28T18:00:57.754Z,96204.75
2022-12-28T18:03:55.725Z,96189.06
2022-12-28T18:06:52.677Z,96195.47
2022-12-28T18:09:49.501Z,96195.22
2022-12-28T18:12:46.322Z,96181.81
2022-12-28T18:15:45.976Z,96181.81
2022-12-28T18:18:43.282Z,96184.75
2022-12-28T18:21:41.258Z,96182.94
2022-12-28T18:24:38.161Z,96180.16
2022-12-28T18:27:36.759Z,96193.38
2022-12-28T18:30:33.713Z,96167.69
2022-12-28T18:33:33.146Z,96176.94
2022-12-28T18:36:30.053Z,96167.19
2022-12-28T18:39:27.048Z,96168.56
2022-12-28T18:42:25.195Z,96171.75
2022-12-28T18:45:22.146Z,96160.63
2022-12-28T18:48:22.010Z,96156.09
2022-12-28T18:51:19.121Z,96140.78
2022-12-28T18:54:17.172Z,96140.44
2022-12-28T18:57:14.120Z,96143.16
2022-12-28T19:00:12.544Z,96137.84
2022-12-28T19:03:09.521Z,96134.16
2022-12-28T19:06:08.867Z,96118.72
2022-12-28T19:09:07.136Z,96119.81
2022-12-28T19:12:04.389Z,96111.66
2022-12-28T19:15:01.226Z,96113.75
2022-12-28T19:17:58.029Z,96116.97
2022-12-28T19:21:13.483Z,96114.00
2022-12-28T19:24:18.926Z,96102.63
2022-12-28T19:27:15.773Z,96098.41
2022-12-28T19:30:13.102Z,96098.91
2022-12-28T19:33:09.974Z,96090.72
2022-12-28T19:36:07.296Z,96072.16
2022-12-28T19:39:04.120Z,96073.50
2022-12-28T19:42:00.962Z,96073.25
2022-12-28T19:44:57.795Z,96077.25
2022-12-28T19:47:54.589Z,96073.25
2022-12-28T19:50:51.405Z,96063.19
2022-12-28T19:53:48.229Z,96070.09
2022-12-28T19:56:45.195Z,96061.16
2022-12-28T19:59:42.005Z,96066.94
2022-12-28T20:02:39.097Z,96051.78
2022-12-28T20:05:36.338Z,96054.72
2022-12-28T20:08:33.361Z,96036.94
2022-12-28T20:11:30.441Z,96034.78
2022-12-28T20:14:27.261Z,96033.59
2022-12-28T20:17:24.195Z,96028.22
2022-12-28T20:20:26.596Z,96012.59
2022-12-28T20:23:24.262Z,96019.97
2022-12-28T20:26:23.611Z,96009.66
2022-12-28T20:29:20.776Z,96016.78
2022-12-28T20:32:17.683Z,96007.50
2022-12-28T20:35:14.599Z,96011.75
2022-12-28T20:38:13.276Z,96003.22
2022-12-28T20:41:40.206Z,96014.84
2022-12-28T20:44:37.886Z,96007.06
2022-12-28T20:47:34.732Z,96006.44
2022-12-28T20:50:31.626Z,96000.84
2022-12-28T20:53:28.479Z,96004.81
2022-12-28T20:56:25.423Z,95993.13
2022-12-28T20:59:22.634Z,95991.03
2022-12-28T21:02:19.523Z,95989.66
2022-12-28T21:05:16.455Z,95992.59
2022-12-28T21:08:13.265Z,95987.06
2022-12-28T21:11:10.101Z,95982.56
2022-12-28T21:14:06.984Z,95971.31
2022-12-28T21:17:03.816Z,95970.34
2022-12-28T21:20:00.669Z,95975.41
2022-12-28T21:22:57.476Z,95971.94
2022-12-28T21:26:04.760Z,95967.69
2022-12-28T21:29:01.587Z,95972.28
2022-12-28T21:31:58.483Z,95962.00
2022-12-28T21:34:55.356Z,95968.84
2022-12-28T21:37:52.212Z,95963.53
2022-12-28T21:41:02.304Z,95962.13
2022-12-28T21:43:59.121Z,95960.81
2022-12-28T21:46:56.027Z,95964.88
2022-12-28T21:49:52.867Z,95960.88
2022-12-28T21:52:49.676Z,95952.91
2022-12-28T21:55:46.667Z,95959.06
2022-12-28T21:58:46.006Z,95958.75
2022-12-28T22:02:01.446Z,95957.19
2022-12-28T22:05:21.582Z,95942.59
2022-12-28T22:08:36.766Z,95945.50
2022-12-28T22:12:11.984Z,95952.75
2022-12-28T22:15:35.575Z,95956.13
2022-12-28T22:21:49.276Z,95929.38
2022-12-28T22:24:46.153Z,95915.53
2022-12-28T22:27:43.126Z,95911.38
2022-12-28T22:30:39.983Z,95913.50
2022-12-28T22:33:36.801Z,95918.53
2022-12-28T22:36:33.906Z,95910.56
2022-12-28T22:39:30.707Z,95918.47
2022-12-28T22:42:28.206Z,95911.88
2022-12-28T22:45:25.352Z,95912.88
2022-12-28T22:48:22.174Z,95922.41
2022-12-28T22:51:19.098Z,95917.91
2022-12-28T22:54:15.979Z,95921.13
2022-12-28T22:57:14.057Z,95926.72
2022-12-28T23:00:18.212Z,95919.03
2022-12-28T23:03:15.099Z,95915.31
2022-12-28T23:06:14.721Z,95912.06
2022-12-28T23:09:11.828Z,95909.97
2022-12-28T23:12:08.742Z,95905.44
2022-12-28T23:15:19.644Z,95902.25
2022-12-28T23:18:35.009Z,95898.88
2022-12-28T23:21:50.118Z,95898.09
2022-12-28T23:25:05.228Z,95898.88
2022-12-28T23:28:05.132Z,95888.28
2022-12-28T23:31:02.023Z,95894.13
2022-12-28T23:33:58.851Z,95888.28
2022-12-28T23:36:55.787Z,95890.66
2022-12-28T23:39:52.611Z,95872.34
2022-12-28T23:42:50.491Z,95873.69
2022-12-28T23:45:47.372Z,95857.28
2022-12-28T23:48:44.225Z,95864.94
2022-12-28T23:51:45.782Z,95875.63
2022-12-28T23:54:42.609Z,95847.75
2022-12-28T23:57:39.524Z,95853.34
